Time;durP1;ratioP1;P1;durP2;ratioP2;P2;SDS_P1;SDS_P2;PMS_P1;PMS_P2;Temp;Humidity;BMP_temperature;BMP_pressure;BME280_temperature;BME280_humidity;BME280_pressure;Samples;Min_cycle;Max_cycle;Signal;HPM_P1;HPM_P2
2024/03/28 06:41:33;;;;;;;4.00;2.90;;;;;;;;;;10502331;28;20415;-81
2024/03/28 06:46:34;;;;;;;5.20;3.50;;;;;;;;;;10496775;28;20498;-82
2024/03/28 06:51:35;;;;;;;4.68;3.58;;;;;;;;;;10496465;28;20135;-82
2024/03/28 06:56:36;;;;;;;7.45;2.60;;;;;;;;;;10494841;28;20123;-82
2024/03/28 07:01:37;;;;;;;5.00;2.58;;;;;;;;;;10494800;28;20147;-82
2024/03/28 07:06:38;;;;;;;3.95;2.80;;;;;;;;;;10497424;28;20099;-82
2024/03/28 07:11:39;;;;;;;4.55;2.70;;;;;;;;;;10497118;28;20021;-82
2024/03/28 07:16:40;;;;;;;3.30;2.30;;;;;;;;;;10498085;28;20108;-82
2024/03/28 07:21:41;;;;;;;2.53;1.85;;;;;;;;;;10513467;28;20025;-81
2024/03/28 07:26:42;;;;;;;3.50;2.30;;;;;;;;;;10507002;28;20017;-81
2024/03/28 07:31:43;;;;;;;3.00;1.88;;;;;;;;;;10496378;28;20025;-81
2024/03/28 07:36:44;;;;;;;3.38;1.77;;;;;;;;;;10496381;28;20455;-82
2024/03/28 07:41:45;;;;;;;3.45;2.35;;;;;;;;;;10496906;28;20112;-82
2024/03/28 07:46:46;;;;;;;2.35;1.50;;;;;;;;;;10496100;28;20469;-82
2024/03/28 07:51:47;;;;;;;1.98;1.45;;;;;;;;;;10478111;28;20079;-81
2024/03/28 07:56:48;;;;;;;2.60;1.33;;;;;;;;;;10478368;28;20075;-82
2024/03/28 08:01:49;;;;;;;1.33;1.05;;;;;;;;;;10481995;28;20025;-82
2024/03/28 08:06:50;;;;;;;2.13;1.30;;;;;;;;;;10469422;28;20412;-82
2024/03/28 08:11:51;;;;;;;;;;;;;;;;;;10472175;28;20084;-84
2024/03/28 08:17:00;;;;;;;2.30;1.35;;;;;;;;;;10488466;22;19921;-80
2024/03/28 08:22:01;;;;;;;1.75;1.17;;;;;;;;;;10482180;28;20528;-81
2024/03/28 08:27:02;;;;;;;;;;;;;;;;;;10518469;28;20096;-84
2024/03/28 08:32:08;;;;;;;2.65;1.10;;;;;;;;;;10521350;28;20269;-84
2024/03/28 08:37:09;;;;;;;2.58;1.40;;;;;;;;;;10521387;28;20056;-81
2024/03/28 08:42:10;;;;;;;;;;;;;;;;;;10511007;28;20103;-80
2024/03/28 08:47:24;;;;;;;1.30;1.00;;;;;;;;;;10510065;28;19908;-80
2024/03/28 08:58:08;;;;;;;4.50;1.95;;;;;;;;;;10513303;28;20032;-80
2024/03/28 09:03:11;;;;;;;1.83;1.30;;;;;;;;;;10509311;28;20031;-81
2024/03/28 09:08:21;;;;;;;1.88;1.13;;;;;;;;;;10507907;28;20033;-84
2024/03/28 09:13:39;;;;;;;3.08;1.88;;;;;;;;;;10507675;28;20054;-81
2024/03/28 09:19:13;;;;;;;1.23;0.75;;;;;;;;;;10504138;28;20024;-81
2024/03/28 09:29:57;;;;;;;1.90;0.90;;;;;;;;;;10509405;28;20044;-82
2024/03/28 09:34:58;;;;;;;5.63;1.17;;;;;;;;;;10515390;28;20017;-81
2024/03/28 09:40:21;;;;;;;1.15;1.05;;;;;;;;;;10511459;28;20074;-80
2024/03/28 09:45:42;;;;;;;2.75;1.20;;;;;;;;;;10493049;28;20024;-81
2024/03/28 09:50:58;;;;;;;2.33;1.38;;;;;;;;;;10508879;28;20024;-81
2024/03/28 09:56:11;;;;;;;2.03;1.10;;;;;;;;;;10459529;28;20029;-81
2024/03/28 10:01:15;;;;;;;1.55;1.00;;;;;;;;;;10477332;28;20048;-80
2024/03/28 10:06:16;;;;;;;;;;;;;;;;;;10512978;28;20103;-83
2024/03/28 10:11:25;;;;;;;1.40;0.90;;;;;;;;;;10493060;28;19954;-84
2024/03/28 10:16:28;;;;;;;1.73;0.93;;;;;;;;;;10510512;28;20021;-84
2024/03/28 10:21:31;;;;;;;3.00;1.10;;;;;;;;;;10511965;28;20136;-84
2024/03/28 10:32:08;;;;;;;1.45;0.90;;;;;;;;;;10516625;28;20037;-85
2024/03/28 10:37:33;;;;;;;9.43;7.40;;;;;;;;;;10515715;28;20086;-84
2024/03/28 10:42:43;;;;;;;1.77;1.30;;;;;;;;;;10519037;28;20078;-83
2024/03/28 10:48:06;;;;;;;2.08;1.40;;;;;;;;;;10511141;28;20029;-84
2024/03/28 10:53:52;;;;;;;1.98;1.23;;;;;;;;;;10510565;28;20078;-80
2024/03/28 10:58:55;;;;;;;1.60;1.20;;;;;;;;;;10509581;28;20051;-81
2024/03/28 11:03:57;;;;;;;1.88;1.10;;;;;;;;;;10507647;28;20032;-81
2024/03/28 11:09:03;;;;;;;3.45;1.20;;;;;;;;;;10500503;28;20044;-80
2024/03/28 11:14:08;;;;;;;3.67;1.15;;;;;;;;;;10500985;28;20020;-81
2024/03/28 11:19:23;;;;;;;1.52;1.00;;;;;;;;;;10500821;28;20035;-81
2024/03/28 11:24:31;;;;;;;2.67;0.95;;;;;;;;;;10500163;28;20035;-80
2024/03/28 11:29:32;;;;;;;1.00;0.73;;;;;;;;;;10507534;28;20035;-80
2024/03/28 11:34:33;;;;;;;;;;;;;;;;;;10509219;28;20396;-81
2024/03/28 11:39:36;;;;;;;1.75;1.15;;;;;;;;;;10507896;28;19905;-79
2024/03/28 11:44:37;;;;;;;2.40;1.35;;;;;;;;;;10506899;28;20033;-80
2024/03/28 11:49:38;;;;;;;;;;;;;;;;;;10509340;28;20028;-80
2024/03/28 11:54:40;;;;;;;3.25;1.60;;;;;;;;;;10508225;28;19905;-80
2024/03/28 11:59:41;;;;;;;3.42;2.50;;;;;;;;;;10508005;28;20031;-80
2024/03/28 12:04:42;;;;;;;;;;;;;;;;;;10510128;28;20066;-80
2024/03/28 12:09:46;;;;;;;2.70;1.60;;;;;;;;;;10489010;28;19908;-80
2024/03/28 12:14:52;;;;;;;2.83;1.63;;;;;;;;;;10489573;28;20032;-80
2024/03/28 12:19:54;;;;;;;2.55;1.60;;;;;;;;;;10496295;28;20029;-83
2024/03/28 12:24:57;;;;;;;2.38;1.52;;;;;;;;;;10500883;28;20427;-82
2024/03/28 12:30:10;;;;;;;3.35;1.50;;;;;;;;;;10516279;28;20059;-79
2024/03/28 12:35:51;;;;;;;9.52;6.55;;;;;;;;;;10515097;28;20032;-81
2024/03/28 12:41:19;;;;;;;11.05;8.80;;;;;;;;;;10500706;28;20048;-78
2024/03/28 12:46:24;;;;;;;2.08;1.10;;;;;;;;;;10502142;28;20028;-79
2024/03/28 12:51:30;;;;;;;2.10;1.10;;;;;;;;;;10506737;28;20029;-79
2024/03/28 12:56:51;;;;;;;2.17;1.30;;;;;;;;;;10504895;28;20052;-81
2024/03/28 13:01:54;;;;;;;2.60;1.42;;;;;;;;;;10509114;28;20021;-81
2024/03/28 13:06:55;;;;;;;2.17;1.10;;;;;;;;;;10505765;28;20098;-82
2024/03/28 13:11:57;;;;;;;2.63;1.35;;;;;;;;;;10507744;28;20040;-82
2024/03/28 13:16:58;;;;;;;;;;;;;;;;;;10520267;28;20032;-80
2024/03/28 13:22:08;;;;;;;2.90;0.90;;;;;;;;;;10508104;28;19918;-79
2024/03/28 13:27:09;;;;;;;2.20;1.08;;;;;;;;;;10505043;28;20392;-79
2024/03/28 13:32:10;;;;;;;;;;;;;;;;;;10532614;28;20044;-79
2024/03/28 13:37:14;;;;;;;1.60;0.88;;;;;;;;;;10503207;28;19911;-80
2024/03/28 13:42:22;;;;;;;2.58;0.93;;;;;;;;;;10506902;28;20062;-81
2024/03/28 13:47:39;;;;;;;4.10;1.00;;;;;;;;;;10507047;28;20426;-81
2024/03/28 13:52:42;;;;;;;3.42;0.88;;;;;;;;;;10506167;28;20059;-82
2024/03/28 13:57:49;;;;;;;2.20;0.73;;;;;;;;;;10505100;28;20025;-82
2024/03/28 14:02:50;;;;;;;2.08;0.90;;;;;;;;;;10507774;28;20119;-81
2024/03/28 14:07:51;;;;;;;3.03;1.50;;;;;;;;;;10490058;28;20041;-82
2024/03/28 14:17:55;;;;;;;1.38;0.50;;;;;;;;;;10431523;28;20076;-83
2024/03/28 14:22:56;;;;;;;1.52;0.80;;;;;;;;;;10432355;28;20021;-83
2024/03/28 14:27:57;;;;;;;;;;;;;;;;;;10454828;28;20448;-82
2024/03/28 14:32:58;;;;;;;3.60;1.25;;;;;;;;;;10454094;28;19905;-83
2024/03/28 14:37:59;;;;;;;;;;;;;;;;;;10455053;28;20472;-83
2024/03/28 14:43:00;;;;;;;2.03;0.80;;;;;;;;;;10467821;28;19905;-84
2024/03/28 14:48:03;;;;;;;;;;;;;;;;;;10443287;28;20194;-82
2024/03/28 14:53:05;;;;;;;2.72;1.00;;;;;;;;;;10462286;28;19912;-82
2024/03/28 14:58:06;;;;;;;3.22;1.20;;;;;;;;;;10463637;28;20020;-82
2024/03/28 15:03:06;;;;;;;;;;;;;;;;;;10477204;28;20109;-82
2024/03/28 15:08:08;;;;;;;2.13;1.17;;;;;;;;;;10479898;28;19916;-82
2024/03/28 15:13:09;;;;;;;2.58;0.90;;;;;;;;;;10490725;28;20073;-81
2024/03/28 15:18:10;;;;;;;;;;;;;;;;;;10491668;28;20028;-82
2024/03/28 15:23:11;;;;;;;1.52;0.82;;;;;;;;;;10479971;28;19905;-82
2024/03/28 15:28:12;;;;;;;;;;;;;;;;;;10461479;28;20044;-82
2024/03/28 15:33:14;;;;;;;1.90;0.75;;;;;;;;;;10461237;28;19911;-82
2024/03/28 15:38:15;;;;;;;3.10;1.38;;;;;;;;;;10462770;28;20492;-82
2024/03/28 15:43:16;;;;;;;;;;;;;;;;;;10481917;28;20080;-82
2024/03/28 15:48:17;;;;;;;2.47;1.27;;;;;;;;;;10476458;28;19912;-80
2024/03/28 15:53:19;;;;;;;;;;;;;;;;;;10472878;28;20040;-82
2024/03/28 15:58:20;;;;;;;2.53;0.88;;;;;;;;;;10480408;28;19909;-82
2024/03/28 16:03:21;;;;;;;;;;;;;;;;;;10461576;28;20089;-81
2024/03/28 16:08:22;;;;;;;2.00;0.77;;;;;;;;;;10478700;28;19943;-82
2024/03/28 16:13:23;;;;;;;;;;;;;;;;;;10461426;28;20072;-81
2024/03/28 16:18:24;;;;;;;1.17;0.65;;;;;;;;;;10487931;28;19980;-82
2024/03/28 16:23:25;;;;;;;;;;;;;;;;;;10497337;28;20021;-82
2024/03/28 16:28:26;;;;;;;;;;;;;;;;;;10497985;28;19968;-82
2024/03/28 16:33:27;;;;;;;2.38;0.80;;;;;;;;;;10472176;28;19955;-83
2024/03/28 16:38:28;;;;;;;3.03;1.08;;;;;;;;;;10480582;28;20052;-81
2024/03/28 16:43:29;;;;;;;;;;;;;;;;;;10485957;28;20123;-82
2024/03/28 16:48:30;;;;;;;1.73;1.00;;;;;;;;;;10475804;28;20356;-82
2024/03/28 16:53:31;;;;;;;2.42;0.90;;;;;;;;;;10452652;28;20039;-82
2024/03/28 16:58:33;;;;;;;;;;;;;;;;;;10493838;28;20033;-80
2024/03/28 17:03:34;;;;;;;2.33;1.05;;;;;;;;;;10507457;28;19936;-82
2024/03/28 17:08:35;;;;;;;;;;;;;;;;;;10505163;28;20025;-82
2024/03/28 17:13:37;;;;;;;1.60;0.60;;;;;;;;;;10464194;28;19917;-81
2024/03/28 17:18:39;;;;;;;1.58;0.70;;;;;;;;;;10455509;28;20120;-81
2024/03/28 17:23:40;;;;;;;3.47;0.82;;;;;;;;;;10452862;28;20069;-81
2024/03/28 17:28:41;;;;;;;3.70;1.55;;;;;;;;;;10455273;28;20123;-83
2024/03/28 17:33:42;;;;;;;1.50;0.82;;;;;;;;;;10475444;28;20110;-82
2024/03/28 17:38:45;;;;;;;1.80;0.90;;;;;;;;;;10477941;28;20025;-82
2024/03/28 17:43:46;;;;;;;2.90;1.10;;;;;;;;;;10480573;28;20108;-82
2024/03/28 17:48:47;;;;;;;;;;;;;;;;;;10461967;28;20440;-82
2024/03/28 17:53:50;;;;;;;4.18;2.15;;;;;;;;;;10476855;28;19924;-81
2024/03/28 17:58:52;;;;;;;3.42;1.30;;;;;;;;;;10508019;28;20017;-80
2024/03/28 18:03:55;;;;;;;3.17;1.30;;;;;;;;;;10477371;28;20115;-82
2024/03/28 18:08:57;;;;;;;3.45;1.17;;;;;;;;;;10443230;28;20032;-80
2024/03/28 18:13:58;;;;;;;3.15;1.05;;;;;;;;;;10445046;28;20033;-81
2024/03/28 18:18:59;;;;;;;4.90;1.42;;;;;;;;;;10446479;28;20067;-81
2024/03/28 18:24:00;;;;;;;2.58;1.40;;;;;;;;;;10464759;28;20093;-81
2024/03/28 18:29:01;;;;;;;2.65;1.40;;;;;;;;;;10467908;28;20033;-81
2024/03/28 18:34:02;;;;;;;3.35;1.10;;;;;;;;;;10451409;28;20131;-81
2024/03/28 18:39:03;;;;;;;3.40;1.00;;;;;;;;;;10471232;28;20063;-81
2024/03/28 18:44:05;;;;;;;2.78;1.50;;;;;;;;;;10456386;28;20056;-81
2024/03/28 18:49:06;;;;;;;3.63;1.67;;;;;;;;;;10474574;28;20039;-81
2024/03/28 18:54:07;;;;;;;3.72;1.55;;;;;;;;;;10462475;28;20013;-80
2024/03/28 18:59:10;;;;;;;3.45;1.63;;;;;;;;;;10488831;28;20048;-81
2024/03/28 19:04:11;;;;;;;5.78;1.45;;;;;;;;;;10461591;28;20025;-81
2024/03/28 19:09:12;;;;;;;3.75;1.30;;;;;;;;;;10452669;28;20198;-81
2024/03/28 19:14:13;;;;;;;2.42;1.00;;;;;;;;;;10450694;28;20124;-81
2024/03/28 19:19:14;;;;;;;2.65;1.20;;;;;;;;;;10471607;28;20059;-81
2024/03/28 19:24:15;;;;;;;1.80;0.82;;;;;;;;;;10471662;28;20064;-81
2024/03/28 19:29:16;;;;;;;;;;;;;;;;;;10473525;28;20052;-81
2024/03/28 19:34:17;;;;;;;1.77;0.93;;;;;;;;;;10454479;28;20371;-81
2024/03/28 19:39:18;;;;;;;;;;;;;;;;;;10473177;28;20056;-81
2024/03/28 19:44:19;;;;;;;1.88;1.00;;;;;;;;;;10473445;28;19936;-81
2024/03/28 19:49:20;;;;;;;;;;;;;;;;;;10469866;28;20056;-81
2024/03/28 19:54:21;;;;;;;2.85;1.48;;;;;;;;;;10484762;28;20423;-81
2024/03/28 19:59:22;;;;;;;;;;;;;;;;;;10465438;28;20092;-81
2024/03/28 20:04:24;;;;;;;3.55;1.30;;;;;;;;;;10482072;28;19968;-81
